Time;durP1;ratioP1;P1;durP2;ratioP2;P2;SDS_P1;SDS_P2;PMS_P1;PMS_P2;Temp;Humidity;BMP_temperature;BMP_pressure;BME280_temperature;BME280_humidity;BME280_pressure;Samples;Min_cycle;Max_cycle;Signal;HPM_P1;HPM_P2
2022/07/30 00:00:29;;;;;;;6.25;3.10;;;22.10;73.90;;;;;;5057007;28;20037;-62
2022/07/30 00:02:54;;;;;;;6.50;3.28;;;22.10;73.60;;;;;;5051561;28;20411;-62
2022/07/30 00:05:20;;;;;;;9.57;3.00;;;22.00;73.00;;;;;;5057955;28;20091;-62
2022/07/30 00:07:46;;;;;;;5.68;3.10;;;22.00;72.70;;;;;;5056948;28;20107;-62
2022/07/30 00:10:14;;;;;;;5.80;3.30;;;21.90;72.80;;;;;;5057842;28;20400;-62
2022/07/30 00:12:40;;;;;;;7.57;3.40;;;21.90;73.00;;;;;;5052707;28;20071;-62
2022/07/30 00:15:07;;;;;;;7.93;3.60;;;21.90;73.00;;;;;;5053754;28;20095;-62
2022/07/30 00:17:33;;;;;;;7.57;3.53;;;21.90;73.40;;;;;;5052349;28;20538;-62
2022/07/30 00:19:58;;;;;;;8.75;4.22;;;21.90;73.70;;;;;;5054629;28;20036;-62
2022/07/30 00:22:24;;;;;;;9.77;4.28;;;21.80;73.90;;;;;;5038002;28;20021;-62
2022/07/30 00:24:49;;;;;;;9.23;3.78;;;21.80;74.30;;;;;;5050833;28;20115;-62
2022/07/30 00:27:15;;;;;;;7.55;4.18;;;21.80;74.50;;;;;;5052632;28;20115;-62
2022/07/30 00:29:44;;;;;;;10.00;3.90;;;21.70;74.50;;;;;;5060372;28;20032;-62
2022/07/30 00:32:10;;;;;;;7.82;3.78;;;21.70;74.40;;;;;;5069345;28;20021;-62
2022/07/30 00:34:35;;;;;;;7.80;4.43;;;21.60;74.30;;;;;;5065049;28;20561;-62
2022/07/30 00:37:01;;;;;;;7.05;3.75;;;21.60;74.20;;;;;;5058624;28;20416;-62
2022/07/30 00:39:28;;;;;;;15.60;4.57;;;21.60;74.20;;;;;;5047719;28;20021;-62
2022/07/30 00:41:58;;;;;;;9.65;4.53;;;21.60;75.10;;;;;;5051968;28;20029;-62
2022/07/30 00:44:24;;;;;;;8.75;5.32;;;21.60;74.70;;;;;;5061437;28;20033;-62
2022/07/30 00:46:50;;;;;;;10.43;5.07;;;21.50;75.00;;;;;;5059641;28;20423;-62
2022/07/30 00:49:16;;;;;;;9.75;5.32;;;21.60;75.30;;;;;;5064847;28;20169;-62
2022/07/30 00:51:42;;;;;;;9.63;5.10;;;21.50;75.20;;;;;;5054705;28;20112;-62
2022/07/30 00:54:08;;;;;;;10.55;5.90;;;21.50;75.20;;;;;;5056124;28;20115;-62
2022/07/30 00:56:33;;;;;;;12.20;5.80;;;21.40;75.30;;;;;;5044745;28;20037;-62
2022/07/30 00:58:59;;;;;;;8.60;6.00;;;21.40;75.30;;;;;;5050345;28;20029;-62
2022/07/30 01:01:25;;;;;;;12.13;5.78;;;21.40;75.20;;;;;;5051012;28;20128;-62
2022/07/30 01:03:50;;;;;;;6.57;3.88;;;21.40;75.00;;;;;;5055303;28;20469;-62
2022/07/30 01:06:16;;;;;;;11.77;4.78;;;21.30;74.90;;;;;;5053927;28;20056;-62
2022/07/30 01:08:42;;;;;;;15.27;4.93;;;21.30;74.90;;;;;;5053238;28;20040;-62
2022/07/30 01:11:09;;;;;;;7.63;4.78;;;21.30;75.10;;;;;;5060828;28;20495;-62
2022/07/30 01:13:41;;;;;;;;;;;21.30;75.00;;;;;;5047020;28;20115;-62
2022/07/30 01:16:08;;;;;;;9.80;5.47;;;21.20;75.00;;;;;;5033409;28;19909;-62
2022/07/30 01:21:29;;;;;;;16.40;5.97;;;21.20;74.80;;;;;;5041447;28;20860;-62
2022/07/30 01:24:00;;;;;;;18.25;8.77;;;21.20;74.70;;;;;;5052186;28;20111;-62
2022/07/30 01:26:26;;;;;;;12.23;8.63;;;21.10;73.70;;;;;;5061269;28;20481;-62
2022/07/30 01:28:54;;;;;;;14.25;8.70;;;21.10;73.70;;;;;;5049365;28;20029;-62
2022/07/30 01:31:24;;;;;;;19.27;9.07;;;21.10;73.40;;;;;;5039375;28;20024;-62
2022/07/30 01:33:50;;;;;;;16.55;9.07;;;21.00;73.50;;;;;;5061242;28;20035;-62
2022/07/30 01:36:21;;;;;;;15.48;7.70;;;20.90;73.60;;;;;;5037667;28;20488;-62
2022/07/30 01:38:48;;;;;;;63.22;6.90;;;21.00;74.00;;;;;;5061209;28;20431;-62
2022/07/30 01:41:16;;;;;;;22.80;6.90;;;20.90;74.50;;;;;;5056212;28;20565;-62
2022/07/30 01:43:45;;;;;;;25.17;6.82;;;20.90;74.70;;;;;;5065423;28;20515;-62
2022/07/30 01:46:14;;;;;;;51.40;4.60;;;20.90;74.70;;;;;;5059097;28;20025;-62
2022/07/30 01:48:42;;;;;;;9.32;5.57;;;20.80;74.60;;;;;;5046374;28;20032;-62
2022/07/30 01:51:11;;;;;;;13.90;3.35;;;20.80;74.90;;;;;;5059160;28;20059;-62
2022/07/30 01:53:41;;;;;;;6.75;4.57;;;20.70;75.20;;;;;;5064021;28;20123;-62
2022/07/30 01:56:10;;;;;;;5.32;3.88;;;20.70;75.50;;;;;;5069494;28;20040;-62
2022/07/30 01:58:38;;;;;;;5.28;3.97;;;20.70;75.80;;;;;;5064072;28;20487;-62
2022/07/30 02:01:19;;;;;;;4.72;3.50;;;20.60;75.60;;;;;;5064073;28;20120;-62
2022/07/30 02:03:45;;;;;;;5.32;3.47;;;20.60;75.60;;;;;;5065532;28;20120;-62
2022/07/30 02:06:18;;;;;;;5.55;3.53;;;20.60;75.60;;;;;;5066703;28;20101;-62
2022/07/30 02:08:51;;;;;;;6.22;3.90;;;20.60;75.70;;;;;;5060542;28;20398;-62
2022/07/30 02:12:27;;;;;;;6.72;4.60;;;20.60;75.50;;;;;;5064626;28;20025;-62
2022/07/30 02:14:18;;;;;;;7.72;4.78;;;20.50;75.30;;;;;;5052681;28;20393;-62
2022/07/30 02:16:49;;;;;;;10.20;5.78;;;20.50;74.90;;;;;;5059897;28;20031;-62
2022/07/30 02:19:20;;;;;;;8.57;5.55;;;20.50;74.80;;;;;;5068102;28;20123;-62
2022/07/30 02:21:57;;;;;;;8.82;6.20;;;20.40;74.60;;;;;;5047808;28;20056;-62
2022/07/30 02:24:27;;;;;;;10.13;5.70;;;20.40;74.40;;;;;;5047970;28;20029;-62
2022/07/30 02:27:00;;;;;;;8.70;6.13;;;20.40;74.60;;;;;;5064677;28;20041;-62
2022/07/30 02:29:26;;;;;;;;;;;20.40;74.10;;;;;;5065358;28;20533;-62
2022/07/30 02:31:55;;;;;;;13.27;6.40;;;20.40;74.40;;;;;;5064943;28;20382;-62
2022/07/30 02:34:23;;;;;;;9.38;5.63;;;20.30;74.00;;;;;;5061111;28;20029;-62
2022/07/30 02:36:51;;;;;;;11.88;6.80;;;20.30;74.40;;;;;;5059791;28;20102;-62
2022/07/30 02:39:20;;;;;;;10.70;8.57;;;20.20;74.40;;;;;;5060457;28;20025;-62
2022/07/30 02:41:46;;;;;;;14.90;7.50;;;20.10;74.30;;;;;;5054864;28;20388;-62
2022/07/30 02:44:16;;;;;;;12.95;9.35;;;20.10;74.40;;;;;;5060769;28;20016;-62
2022/07/30 02:46:42;;;;;;;23.63;7.38;;;20.10;74.20;;;;;;5063833;28;20036;-62
2022/07/30 02:49:35;;;;;;;19.77;6.40;;;20.10;74.30;;;;;;5053198;28;20128;-62
2022/07/30 02:52:04;;;;;;;89.43;6.78;;;20.00;74.50;;;;;;5059585;28;20025;-62
2022/07/30 02:54:31;;;;;;;87.65;7.05;;;20.00;74.80;;;;;;5053201;28;20068;-62
2022/07/30 02:57:00;;;;;;;93.20;8.48;;;20.00;75.00;;;;;;5062361;28;20024;-62
2022/07/30 02:59:28;;;;;;;69.03;8.32;;;19.90;75.20;;;;;;5056296;28;20036;-62
2022/07/30 03:01:54;;;;;;;82.93;9.38;;;19.80;76.00;;;;;;5067555;28;20039;-62
2022/07/30 03:04:21;;;;;;;60.13;6.95;;;19.80;75.60;;;;;;5064202;28;20033;-62
2022/07/30 03:06:48;;;;;;;85.35;7.40;;;19.70;75.70;;;;;;5062306;28;20043;-62
2022/07/30 03:09:16;;;;;;;113.43;9.07;;;19.70;75.80;;;;;;5051788;28;20028;-62
2022/07/30 03:11:42;;;;;;;99.40;8.82;;;19.70;76.00;;;;;;5051077;28;20090;-62
2022/07/30 03:14:10;;;;;;;179.30;10.32;;;19.60;76.30;;;;;;5052713;28;20155;-62
2022/07/30 03:16:37;;;;;;;12.30;7.28;;;19.60;76.50;;;;;;5037895;28;20033;-62
2022/07/30 03:19:08;;;;;;;25.85;7.13;;;19.60;77.00;;;;;;5055609;28;20035;-62
2022/07/30 03:21:36;;;;;;;11.13;6.05;;;19.60;77.20;;;;;;5055790;28;20036;-62
2022/07/30 03:24:03;;;;;;;55.10;6.90;;;19.60;77.50;;;;;;5056026;28;20044;-62
2022/07/30 03:26:32;;;;;;;49.15;6.75;;;19.60;78.00;;;;;;5042459;28;20478;-62
2022/07/30 03:28:58;;;;;;;34.47;6.45;;;19.50;78.20;;;;;;5063605;28;20474;-62
2022/07/30 03:31:26;;;;;;;37.70;5.60;;;19.60;78.50;;;;;;5064865;28;20041;-62
2022/07/30 03:33:52;;;;;;;54.40;6.10;;;19.60;78.50;;;;;;5052448;28;20465;-62
2022/07/30 03:36:18;;;;;;;58.83;4.97;;;19.50;78.20;;;;;;5064201;28;20046;-62
2022/07/30 03:38:46;;;;;;;86.05;6.30;;;19.50;78.20;;;;;;5050648;28;20033;-62
2022/07/30 03:41:13;;;;;;;66.63;6.68;;;19.50;78.30;;;;;;5051466;28;20044;-62
2022/07/30 03:43:40;;;;;;;43.55;5.22;;;19.40;78.20;;;;;;5039859;28;20032;-62
2022/07/30 03:46:09;;;;;;;57.83;4.45;;;19.40;78.20;;;;;;5050027;28;20028;-62
2022/07/30 03:48:39;;;;;;;114.82;5.65;;;19.30;78.00;;;;;;5051854;28;20029;-62
2022/07/30 03:51:09;;;;;;;215.75;6.18;;;19.30;77.80;;;;;;5064990;28;20028;-62
2022/07/30 03:53:37;;;;;;;102.15;4.70;;;19.30;78.00;;;;;;5050626;28;20044;-62
2022/07/30 03:56:21;;;;;;;262.10;7.38;;;19.30;78.40;;;;;;5055456;28;20070;-62
2022/07/30 03:59:05;;;;;;;128.15;4.93;;;19.20;78.80;;;;;;5068508;28;20071;-62
2022/07/30 04:01:32;;;;;;;125.13;5.80;;;19.20;79.10;;;;;;5057636;28;20890;-62
2022/07/30 04:04:06;;;;;;;;;;;19.20;79.50;;;;;;5054087;28;20035;-62
2022/07/30 04:06:38;;;;;;;25.92;4.25;;;19.20;79.00;;;;;;5059985;28;19915;-62
2022/07/30 04:09:06;;;;;;;42.92;4.60;;;19.20;79.40;;;;;;5068555;28;20035;-62
2022/07/30 04:11:31;;;;;;;134.88;5.65;;;19.20;79.60;;;;;;5070149;28;20024;-62
2022/07/30 04:14:02;;;;;;;72.45;5.57;;;19.20;79.60;;;;;;5052504;28;20025;-62
2022/07/30 04:17:00;;;;;;;127.00;5.93;;;19.20;79.70;;;;;;5050312;28;20063;-62
2022/07/30 04:19:39;;;;;;;92.20;6.63;;;19.10;79.80;;;;;;5061231;28;20044;-62
2022/07/30 04:22:07;;;;;;;7.20;5.40;;;19.10;79.80;;;;;;5039355;28;20037;-62
2022/07/30 04:24:36;;;;;;;7.65;5.53;;;19.10;79.70;;;;;;5050521;28;20021;-62
2022/07/30 04:27:03;;;;;;;8.00;5.10;;;19.10;80.10;;;;;;5051937;28;20033;-62
2022/07/30 04:29:32;;;;;;;7.53;4.82;;;19.10;80.20;;;;;;5051470;28;20032;-62
2022/07/30 04:31:58;;;;;;;18.42;6.63;;;19.10;80.40;;;;;;5059802;28;20028;-62
2022/07/30 04:34:32;;;;;;;16.45;6.85;;;19.00;80.30;;;;;;5054120;28;20115;-62
2022/07/30 04:36:58;;;;;;;22.70;6.53;;;19.00;80.20;;;;;;5053789;28;20024;-62
2022/07/30 04:39:24;;;;;;;9.20;6.47;;;19.00;80.80;;;;;;5049794;28;20029;-62
2022/07/30 04:41:50;;;;;;;7.35;5.43;;;19.00;80.20;;;;;;5052917;28;20044;-62
2022/07/30 04:44:35;;;;;;;7.53;4.50;;;19.00;80.20;;;;;;5053748;28;20040;-64
2022/07/30 04:47:20;;;;;;;7.25;5.32;;;19.00;80.40;;;;;;5063122;28;20055;-65
2022/07/30 04:50:01;;;;;;;7.60;5.70;;;19.00;80.20;;;;;;5049643;28;20057;-62
2022/07/30 04:52:27;;;;;;;9.60;5.15;;;18.90;80.10;;;;;;5049967;28;20463;-63
2022/07/30 04:54:58;;;;;;;7.30;4.72;;;18.90;80.40;;;;;;5049793;28;20047;-63
2022/07/30 04:57:25;;;;;;;9.82;4.80;;;19.00;80.90;;;;;;5053173;28;20448;-63
2022/07/30 04:59:51;;;;;;;6.15;4.93;;;18.90;81.40;;;;;;5059416;28;20017;-62
2022/07/30 05:02:19;;;;;;;7.45;4.45;;;19.00;81.90;;;;;;5056778;28;20033;-62
2022/07/30 05:04:47;;;;;;;6.90;4.35;;;18.90;82.40;;;;;;5053399;28;20078;-62
2022/07/30 05:07:14;;;;;;;6.60;4.38;;;19.00;82.60;;;;;;5054522;28;20028;-62
2022/07/30 05:09:41;;;;;;;9.18;5.10;;;18.90;82.30;;;;;;5052375;28;20045;-62
2022/07/30 05:12:07;;;;;;;8.23;5.05;;;18.90;82.60;;;;;;5050907;28;20175;-62
2022/07/30 05:14:33;;;;;;;7.60;4.70;;;18.90;83.10;;;;;;5063928;28;20025;-62
2022/07/30 05:16:59;;;;;;;6.70;4.35;;;18.90;83.10;;;;;;5055070;28;20365;-62
2022/07/30 05:19:26;;;;;;;9.68;4.40;;;18.90;83.00;;;;;;5054760;28;20039;-62
2022/07/30 05:21:52;;;;;;;11.75;4.90;;;18.90;83.10;;;;;;5041146;28;20037;-62
2022/07/30 05:24:18;;;;;;;9.10;5.38;;;18.90;83.00;;;;;;5045338;28;20115;-62
2022/07/30 05:26:52;;;;;;;7.40;5.13;;;18.90;83.20;;;;;;5057384;28;20764;-62
2022/07/30 05:29:19;;;;;;;11.65;6.07;;;18.90;83.50;;;;;;5056001;28;20016;-62
2022/07/30 05:31:49;;;;;;;8.88;6.05;;;18.90;83.70;;;;;;5052132;28;20818;-62
2022/07/30 05:34:17;;;;;;;9.93;5.97;;;18.90;83.70;;;;;;5065212;28;20410;-62
2022/07/30 05:36:44;;;;;;;10.07;5.40;;;18.90;83.30;;;;;;5053993;28;20037;-62
2022/07/30 05:39:12;;;;;;;7.72;5.50;;;18.90;83.20;;;;;;5055015;28;20020;-62
2022/07/30 05:42:01;;;;;;;8.10;5.72;;;18.90;83.60;;;;;;5050027;28;20047;-62
2022/07/30 05:44:40;;;;;;;10.73;6.53;;;19.00;83.50;;;;;;5053157;28;20029;-62
2022/07/30 05:47:06;;;;;;;11.73;7.22;;;19.00;83.90;;;;;;5064033;28;20081;-72
2022/07/30 05:49:32;;;;;;;11.95;6.88;;;19.00;84.00;;;;;;5065117;28;20035;-67
2022/07/30 05:52:05;;;;;;;13.23;6.53;;;19.00;84.40;;;;;;5058829;28;20031;-62
2022/07/30 05:54:33;;;;;;;13.75;7.32;;;19.10;84.60;;;;;;5063610;28;20047;-61
2022/07/30 05:57:17;;;;;;;23.13;8.60;;;19.10;85.30;;;;;;5056152;28;20404;-62
2022/07/30 05:59:43;;;;;;;15.25;8.52;;;19.20;86.10;;;;;;5057285;28;20033;-62
2022/07/30 06:02:11;;;;;;;17.27;8.48;;;19.20;85.80;;;;;;5055285;28;20086;-62
2022/07/30 06:05:01;;;;;;;13.93;8.80;;;19.20;87.10;;;;;;5058267;28;20033;-63
2022/07/30 06:07:31;;;;;;;10.75;7.90;;;19.30;87.10;;;;;;5058114;28;20024;-62
2022/07/30 06:10:00;;;;;;;17.65;8.48;;;19.30;87.20;;;;;;5055843;28;20442;-62
2022/07/30 06:12:28;;;;;;;17.55;8.55;;;19.40;87.50;;;;;;5058156;28;20032;-63
2022/07/30 06:14:53;;;;;;;19.40;7.65;;;19.40;87.10;;;;;;5054889;28;20017;-63
2022/07/30 06:17:25;;;;;;;19.45;7.90;;;19.40;85.70;;;;;;5061143;28;20024;-62
2022/07/30 06:20:14;;;;;;;15.75;7.10;;;19.40;84.90;;;;;;5054998;28;20091;-62
2022/07/30 06:23:09;;;;;;;14.13;7.38;;;19.40;84.40;;;;;;5052577;28;20025;-62
2022/07/30 06:25:53;;;;;;;16.38;8.38;;;19.40;83.60;;;;;;5053439;28;21701;-62
2022/07/30 06:28:19;;;;;;;13.02;7.18;;;19.40;84.20;;;;;;5051967;28;20017;-63
2022/07/30 06:30:46;;;;;;;15.30;7.18;;;19.40;84.50;;;;;;5057432;28;20043;-62
2022/07/30 06:33:13;;;;;;;21.23;7.65;;;19.40;84.70;;;;;;5062944;28;20082;-65
2022/07/30 06:35:38;;;;;;;17.95;7.78;;;19.40;84.90;;;;;;5053322;28;20033;-63
2022/07/30 06:38:08;;;;;;;21.00;8.48;;;19.50;84.30;;;;;;5059676;28;20033;-61
2022/07/30 06:40:47;;;;;;;13.70;8.50;;;19.60;84.40;;;;;;5062993;28;20044;-62
2022/07/30 06:43:18;;;;;;;16.67;8.75;;;19.60;85.80;;;;;;5062253;28;20033;-62
2022/07/30 06:46:14;;;;;;;13.35;7.93;;;19.60;85.90;;;;;;5052908;28;20373;-62
2022/07/30 06:48:47;;;;;;;23.08;9.07;;;19.70;84.40;;;;;;5052837;28;20357;-62
2022/07/30 06:51:14;;;;;;;27.80;9.52;;;19.60;83.80;;;;;;5053849;28;20033;-62
2022/07/30 06:53:39;;;;;;;16.33;6.95;;;19.70;84.70;;;;;;5050791;28;20063;-62
2022/07/30 06:56:12;;;;;;;4.95;3.20;;;19.70;83.60;;;;;;5061161;28;20024;-62
2022/07/30 06:58:44;;;;;;;;;;;19.70;82.30;;;;;;5054420;28;20064;-62
2022/07/30 07:01:49;;;;;;;11.55;6.65;;;19.70;82.10;;;;;;5034812;28;19928;-62
2022/07/30 07:04:14;;;;;;;12.13;7.25;;;19.70;82.70;;;;;;5012645;28;20095;-62
2022/07/30 07:06:43;;;;;;;11.68;6.32;;;19.70;83.70;;;;;;5039707;28;20089;-62
2022/07/30 07:09:16;;;;;;;10.65;7.38;;;19.60;83.30;;;;;;5053884;28;20067;-62
2022/07/30 07:11:49;;;;;;;24.98;8.05;;;19.70;84.10;;;;;;5054839;28;20222;-62
2022/07/30 07:14:17;;;;;;;14.80;7.53;;;19.70;84.80;;;;;;5053091;28;20055;-62
2022/07/30 07:16:47;;;;;;;18.45;9.45;;;19.70;84.70;;;;;;5052683;28;20480;-62
2022/07/30 07:19:33;;;;;;;17.05;7.47;;;19.70;85.30;;;;;;5051278;28;20070;-62
2022/07/30 07:21:59;;;;;;;12.32;7.22;;;19.80;84.70;;;;;;5053228;28;20068;-62
2022/07/30 07:24:25;;;;;;;23.38;10.57;;;19.90;85.30;;;;;;5050186;28;20052;-62
2022/07/30 07:26:55;;;;;;;14.65;9.10;;;19.90;87.10;;;;;;5064904;28;20036;-62
2022/07/30 07:29:21;;;;;;;14.10;8.55;;;20.00;86.80;;;;;;5063180;28;20473;-62
2022/07/30 07:31:46;;;;;;;15.43;9.13;;;20.00;85.80;;;;;;5068566;28;20091;-62
2022/07/30 07:34:13;;;;;;;22.25;9.02;;;20.10;85.30;;;;;;5055064;28;20036;-62
2022/07/30 07:36:39;;;;;;;11.73;7.63;;;20.10;85.40;;;;;;5053787;28;20040;-62
2022/07/30 07:39:08;;;;;;;15.48;5.10;;;20.20;84.90;;;;;;5052969;28;20033;-62
2022/07/30 07:41:36;;;;;;;15.35;7.50;;;20.20;84.40;;;;;;5053241;28;20416;-62
2022/07/30 07:44:04;;;;;;;14.23;8.52;;;20.20;85.50;;;;;;5061773;28;20021;-62
2022/07/30 07:46:32;;;;;;;13.38;8.70;;;20.30;85.40;;;;;;5054338;28;20060;-62
2022/07/30 07:48:59;;;;;;;14.95;8.25;;;20.30;85.60;;;;;;5051517;28;20124;-62
2022/07/30 07:51:32;;;;;;;18.98;8.55;;;20.40;86.00;;;;;;5055840;28;20488;-62
2022/07/30 07:53:57;;;;;;;16.08;6.68;;;20.40;86.20;;;;;;5050898;28;20132;-62
2022/07/30 07:56:24;;;;;;;13.23;7.43;;;20.60;86.20;;;;;;5051813;28;20032;-62
2022/07/30 07:58:52;;;;;;;10.40;5.68;;;20.60;85.10;;;;;;5051992;28;20469;-62
2022/07/30 08:01:20;;;;;;;18.35;7.03;;;20.60;85.50;;;;;;5051029;28;20072;-62
2022/07/30 08:04:05;;;;;;;17.55;6.97;;;20.70;86.30;;;;;;5054752;28;20032;-62
2022/07/30 08:06:49;;;;;;;14.27;6.50;;;20.80;86.40;;;;;;5043961;28;20171;-62
2022/07/30 08:09:50;;;;;;;11.93;6.38;;;20.80;85.90;;;;;;4999288;28;20031;-62
2022/07/30 08:12:34;;;;;;;13.77;6.20;;;20.80;84.40;;;;;;5039207;28;20036;-62
2022/07/30 08:15:14;;;;;;;11.10;5.93;;;20.90;85.40;;;;;;5051931;28;20553;-62
2022/07/30 08:18:06;;;;;;;10.15;6.22;;;21.00;85.50;;;;;;5051794;28;20033;-62
2022/07/30 08:20:44;;;;;;;17.48;6.35;;;21.00;86.00;;;;;;5047385;28;20030;-62
2022/07/30 08:23:11;;;;;;;14.75;7.32;;;21.10;86.40;;;;;;5038184;28;20025;-62
2022/07/30 08:25:40;;;;;;;10.40;5.82;;;21.20;85.50;;;;;;5049913;28;20143;-62
2022/07/30 08:28:06;;;;;;;21.58;5.60;;;21.20;86.30;;;;;;5050202;28;20033;-62
2022/07/30 08:30:32;;;;;;;6.80;3.35;;;21.30;85.60;;;;;;5050002;28;20032;-62
2022/07/30 08:32:57;;;;;;;11.30;5.28;;;21.30;83.90;;;;;;5051060;28;20078;-62
2022/07/30 08:35:24;;;;;;;9.98;4.85;;;21.40;85.10;;;;;;5048953;28;20029;-62
2022/07/30 08:37:50;;;;;;;7.82;4.38;;;21.30;84.90;;;;;;5051513;28;20025;-62
2022/07/30 08:40:24;;;;;;;11.05;5.22;;;21.40;85.00;;;;;;5050200;28;20535;-62
2022/07/30 08:42:57;;;;;;;10.00;4.68;;;21.40;85.50;;;;;;5059698;28;20161;-62
2022/07/30 08:45:25;;;;;;;11.80;6.30;;;21.40;84.80;;;;;;5052179;28;20074;-62
2022/07/30 08:47:52;;;;;;;15.45;6.45;;;21.50;85.50;;;;;;5050807;28;20506;-62
2022/07/30 08:50:22;;;;;;;15.88;6.55;;;21.50;86.70;;;;;;5048582;28;20025;-62
2022/07/30 08:53:07;;;;;;;11.88;5.65;;;21.50;86.30;;;;;;5050273;28;20044;-62
2022/07/30 08:55:33;;;;;;;12.20;6.50;;;21.60;85.80;;;;;;5057204;28;20024;-62
2022/07/30 08:57:59;;;;;;;12.70;6.22;;;21.60;87.40;;;;;;5055220;28;20029;-62
2022/07/30 09:00:25;;;;;;;14.27;4.65;;;21.70;88.50;;;;;;5064168;28;20044;-62
2022/07/30 09:02:51;;;;;;;5.80;3.58;;;21.80;87.00;;;;;;5048738;28;20037;-62
2022/07/30 09:05:17;;;;;;;14.35;4.53;;;21.80;86.30;;;;;;5050571;28;20487;-62
2022/07/30 09:07:43;;;;;;;9.25;5.43;;;21.80;86.20;;;;;;5052030;28;20110;-62
2022/07/30 09:10:16;;;;;;;9.98;4.63;;;21.80;87.50;;;;;;5060035;28;20033;-62
2022/07/30 09:12:45;;;;;;;7.78;4.00;;;21.90;87.80;;;;;;5036759;28;20029;-62
2022/07/30 09:15:14;;;;;;;10.77;3.83;;;21.90;87.40;;;;;;5049771;28;20035;-62
2022/07/30 09:17:51;;;;;;;6.57;3.20;;;22.00;87.60;;;;;;5049409;28;20035;-62
2022/07/30 09:20:20;;;;;;;8.68;3.70;;;22.00;87.60;;;;;;5068654;28;20036;-62
2022/07/30 09:22:51;;;;;;;13.38;4.40;;;22.00;87.30;;;;;;5046521;28;20484;-62
2022/07/30 09:25:38;;;;;;;10.35;4.63;;;22.10;87.60;;;;;;5062588;28;20051;-62
2022/07/30 09:28:31;;;;;;;8.73;3.60;;;22.10;87.30;;;;;;5049750;28;20392;-62
2022/07/30 09:31:27;;;;;;;10.93;3.40;;;22.20;87.10;;;;;;5036231;28;20493;-62
2022/07/30 09:34:33;;;;;;;7.35;3.40;;;22.20;86.60;;;;;;5063482;28;20029;-62
2022/07/30 09:37:19;;;;;;;10.93;3.30;;;22.20;86.70;;;;;;5063037;28;20526;-62
2022/07/30 09:40:12;;;;;;;13.50;4.22;;;22.20;86.60;;;;;;5051483;28;20148;-62
2022/07/30 09:43:08;;;;;;;8.45;4.35;;;22.20;87.10;;;;;;5051187;28;20166;-62
2022/07/30 09:45:48;;;;;;;10.80;3.33;;;22.30;87.40;;;;;;5055032;28;20059;-62
2022/07/30 09:48:22;;;;;;;6.38;3.65;;;22.40;87.40;;;;;;5054740;28;20036;-62
2022/07/30 09:50:49;;;;;;;6.97;2.85;;;22.40;87.00;;;;;;5031216;28;20029;-62
2022/07/30 09:53:15;;;;;;;7.03;3.28;;;22.50;86.90;;;;;;5060127;28;20400;-62
2022/07/30 09:55:42;;;;;;;11.52;4.07;;;22.50;87.00;;;;;;5062036;28;20021;-62
2022/07/30 09:58:08;;;;;;;4.75;2.47;;;22.60;87.10;;;;;;5049517;28;20040;-62
2022/07/30 10:00:35;;;;;;;6.88;2.95;;;22.60;86.80;;;;;;5060530;28;20497;-62
2022/07/30 10:03:25;;;;;;;9.20;3.30;;;22.70;86.60;;;;;;5061539;28;20517;-62
2022/07/30 10:06:10;;;;;;;1.38;1.10;;;22.70;86.30;;;;;;5062681;28;20059;-62
2022/07/30 10:08:49;;;;;;;10.75;2.45;;;22.80;86.00;;;;;;5060965;28;20029;-62
2022/07/30 10:11:18;;;;;;;6.03;3.22;;;22.80;86.30;;;;;;5060430;28;20124;-62
2022/07/30 10:13:47;;;;;;;7.75;2.88;;;22.80;86.10;;;;;;5065257;28;20431;-62
2022/07/30 10:16:13;;;;;;;12.45;2.90;;;22.80;86.20;;;;;;5052436;28;20039;-62
2022/07/30 10:18:42;;;;;;;9.43;2.78;;;22.90;86.40;;;;;;5069404;28;20052;-62
2022/07/30 10:21:43;;;;;;;6.00;2.53;;;23.00;85.50;;;;;;5048004;28;20049;-62
2022/07/30 10:24:30;;;;;;;6.53;2.17;;;23.10;85.10;;;;;;5012186;28;20037;-62
2022/07/30 10:27:28;;;;;;;9.25;3.30;;;23.10;85.10;;;;;;5051799;28;20416;-62
2022/07/30 10:30:14;;;;;;;8.70;3.00;;;23.10;84.80;;;;;;5049982;28;20435;-62
2022/07/30 10:32:40;;;;;;;8.95;2.60;;;23.20;84.60;;;;;;5055011;28;20082;-62
2022/07/30 10:35:07;;;;;;;8.98;3.65;;;23.20;84.30;;;;;;5054029;28;20427;-62
2022/07/30 10:37:35;;;;;;;7.68;3.60;;;23.30;84.10;;;;;;5053229;28;20087;-62
2022/07/30 10:40:16;;;;;;;9.07;3.00;;;23.40;84.20;;;;;;5054012;28;20119;-62
2022/07/30 10:42:50;;;;;;;5.47;2.53;;;23.40;84.30;;;;;;5064199;28;20484;-62
2022/07/30 10:45:27;;;;;;;7.28;2.63;;;23.40;83.80;;;;;;5054262;28;20522;-62
2022/07/30 10:47:55;;;;;;;9.48;3.15;;;23.40;83.90;;;;;;5062817;28;20119;-62
2022/07/30 10:50:25;;;;;;;18.08;4.43;;;23.50;83.90;;;;;;5069310;28;20048;-62
2022/07/30 10:53:00;;;;;;;6.15;2.85;;;23.60;83.70;;;;;;5054324;28;20048;-62
2022/07/30 10:55:32;;;;;;;13.02;3.10;;;23.70;83.70;;;;;;5052508;28;20071;-62
2022/07/30 10:58:09;;;;;;;8.48;2.75;;;23.80;83.70;;;;;;5053958;28;20108;-62
2022/07/30 11:00:55;;;;;;;6.00;2.80;;;23.90;83.50;;;;;;5060573;28;20041;-62
2022/07/30 11:03:26;;;;;;;8.65;3.60;;;24.00;83.20;;;;;;5059580;28;20036;-62
2022/07/30 11:06:14;;;;;;;11.43;2.95;;;24.00;82.40;;;;;;5063343;28;20041;-62
2022/07/30 11:08:42;;;;;;;13.18;3.00;;;24.10;82.70;;;;;;5054569;28;20031;-62
2022/07/30 11:11:31;;;;;;;12.98;3.25;;;24.10;83.20;;;;;;5052742;28;20036;-62
2022/07/30 11:13:59;;;;;;;8.05;3.03;;;24.20;82.50;;;;;;5049266;28;20120;-62
2022/07/30 11:16:31;;;;;;;9.07;3.22;;;24.20;82.00;;;;;;5053103;28;20065;-62
2022/07/30 11:19:02;;;;;;;8.23;2.85;;;24.30;82.10;;;;;;5053474;28;20071;-62
2022/07/30 11:21:28;;;;;;;13.10;2.83;;;24.40;82.30;;;;;;5045690;28;20127;-62
2022/07/30 11:23:54;;;;;;;6.75;2.63;;;24.40;81.50;;;;;;5049984;28;20163;-62
2022/07/30 11:26:38;;;;;;;9.65;2.88;;;24.40;81.40;;;;;;5053759;28;20388;-62
2022/07/30 11:29:04;;;;;;;8.23;3.33;;;24.50;81.30;;;;;;5062867;28;20029;-62
2022/07/30 11:31:35;;;;;;;6.35;2.58;;;24.50;81.60;;;;;;5046929;28;20033;-62
2022/07/30 11:34:19;;;;;;;8.15;3.15;;;24.50;81.40;;;;;;5061087;28;20037;-62
2022/07/30 11:37:06;;;;;;;9.20;2.72;;;24.60;81.00;;;;;;5069223;28;20040;-62
2022/07/30 11:40:01;;;;;;;6.57;2.53;;;24.60;81.20;;;;;;5057147;28;20033;-62
2022/07/30 11:42:48;;;;;;;10.77;3.35;;;24.70;81.10;;;;;;5039916;28;20496;-62
2022/07/30 11:45:21;;;;;;;4.45;1.33;;;24.70;80.10;;;;;;5065916;28;20036;-62
2022/07/30 11:47:52;;;;;;;5.10;2.20;;;24.80;80.90;;;;;;5057134;28;20044;-62
2022/07/30 11:50:24;;;;;;;6.45;2.92;;;24.80;81.30;;;;;;5049945;28;20021;-62
2022/07/30 11:53:14;;;;;;;8.65;2.28;;;24.90;81.10;;;;;;5064036;28;20040;-62
2022/07/30 11:55:41;;;;;;;16.90;3.42;;;24.80;81.50;;;;;;5061803;28;20480;-62
2022/07/30 11:58:10;;;;;;;6.60;2.63;;;24.80;81.00;;;;;;5061673;28;20032;-62
2022/07/30 12:00:39;;;;;;;7.88;2.60;;;24.90;80.10;;;;;;5051358;28;20087;-62
2022/07/30 12:03:16;;;;;;;9.38;2.67;;;24.90;80.90;;;;;;5066429;28;20025;-62
2022/07/30 12:05:42;;;;;;;8.15;3.00;;;25.00;80.90;;;;;;5064054;28;20035;-62
2022/07/30 12:08:09;;;;;;;7.47;2.13;;;25.10;80.50;;;;;;5042795;28;20134;-62
2022/07/30 12:10:37;;;;;;;9.82;3.22;;;25.10;81.10;;;;;;5061224;28;20037;-63
2022/07/30 12:13:16;;;;;;;3.35;1.90;;;25.20;80.10;;;;;;5058910;28;20461;-62
2022/07/30 12:15:44;;;;;;;8.75;2.47;;;25.20;80.50;;;;;;5065287;28;20029;-63
2022/07/30 12:18:12;;;;;;;4.80;1.95;;;25.30;79.60;;;;;;5061158;28;20033;-63
2022/07/30 12:20:41;;;;;;;8.30;3.10;;;25.30;80.20;;;;;;5051390;28;20131;-62
2022/07/30 12:23:14;;;;;;;6.40;2.80;;;25.40;80.00;;;;;;5043529;28;20029;-62
2022/07/30 12:25:43;;;;;;;10.85;2.75;;;25.40;79.40;;;;;;5065817;28;20036;-62
2022/07/30 12:28:09;;;;;;;8.75;3.00;;;25.40;79.30;;;;;;5070612;28;20028;-62
2022/07/30 12:30:39;;;;;;;8.82;2.60;;;25.50;78.50;;;;;;5060035;28;20033;-63
2022/07/30 12:33:06;;;;;;;6.40;2.72;;;25.50;79.10;;;;;;5063561;28;20488;-62
2022/07/30 12:36:01;;;;;;;6.35;2.03;;;25.60;78.40;;;;;;5054883;28;20043;-62
2022/07/30 12:38:27;;;;;;;5.20;2.17;;;25.70;79.40;;;;;;5044019;28;20132;-62
2022/07/30 12:40:54;;;;;;;7.70;2.67;;;25.70;78.90;;;;;;5053984;28;20382;-62
2022/07/30 12:43:51;;;;;;;10.68;2.97;;;25.70;78.80;;;;;;5063707;28;20029;-62
2022/07/30 12:46:20;;;;;;;10.73;2.67;;;25.80;77.90;;;;;;5055051;28;20017;-62
2022/07/30 12:49:03;;;;;;;9.18;2.70;;;25.80;78.50;;;;;;5051589;28;20047;-62
2022/07/30 12:51:31;;;;;;;5.22;2.40;;;25.80;78.70;;;;;;5062599;28;20094;-62
2022/07/30 12:53:58;;;;;;;8.23;2.53;;;25.80;78.30;;;;;;5054254;28;20490;-62
2022/07/30 12:56:25;;;;;;;10.45;3.70;;;25.80;78.10;;;;;;5052235;28;20107;-62
2022/07/30 12:58:54;;;;;;;7.45;2.60;;;25.90;77.60;;;;;;5054493;28;20384;-62
2022/07/30 13:01:42;;;;;;;5.97;2.35;;;26.00;77.30;;;;;;5063085;28;20036;-62
2022/07/30 13:04:09;;;;;;;6.10;2.70;;;26.00;77.10;;;;;;5055594;28;20036;-62
2022/07/30 13:06:36;;;;;;;5.93;2.78;;;26.00;77.30;;;;;;5053672;28;20493;-62
2022/07/30 13:09:03;;;;;;;4.93;2.65;;;26.10;77.70;;;;;;5050397;28;20648;-62